sensor_id;sensor_type;location;lat;lon;timestamp;P1;durP1;ratioP1;P2;durP2;ratioP2
78893;SDS011;68282;42.698;23.350;2023-07-29T00:01:59;4.25;;;3.25;;
78893;SDS011;68282;42.698;23.350;2023-07-29T00:04:24;5.15;;;3.00;;
78893;SDS011;68282;42.698;23.350;2023-07-29T00:06:50;6.40;;;3.15;;
78893;SDS011;68282;42.698;23.350;2023-07-29T00:09:15;5.15;;;3.35;;
78893;SDS011;68282;42.698;23.350;2023-07-29T00:11:41;5.63;;;3.08;;
78893;SDS011;68282;42.698;23.350;2023-07-29T00:14:06;3.95;;;3.13;;
78893;SDS011;68282;42.698;23.350;2023-07-29T00:16:31;5.03;;;3.20;;
78893;SDS011;68282;42.698;23.350;2023-07-29T00:18:57;6.18;;;4.22;;
78893;SDS011;68282;42.698;23.350;2023-07-29T00:21:23;3.75;;;2.92;;
78893;SDS011;68282;42.698;23.350;2023-07-29T00:23:48;4.53;;;3.33;;
78893;SDS011;68282;42.698;23.350;2023-07-29T00:26:13;4.93;;;2.95;;
78893;SDS011;68282;42.698;23.350;2023-07-29T00:28:39;5.13;;;3.17;;
78893;SDS011;68282;42.698;23.350;2023-07-29T00:31:04;4.28;;;3.40;;
78893;SDS011;68282;42.698;23.350;2023-07-29T00:33:30;4.13;;;3.03;;
78893;SDS011;68282;42.698;23.350;2023-07-29T00:35:55;5.53;;;3.17;;
78893;SDS011;68282;42.698;23.350;2023-07-29T00:38:20;4.30;;;2.90;;
78893;SDS011;68282;42.698;23.350;2023-07-29T00:40:46;7.28;;;3.10;;
78893;SDS011;68282;42.698;23.350;2023-07-29T00:43:11;4.13;;;3.35;;
78893;SDS011;68282;42.698;23.350;2023-07-29T00:45:37;5.47;;;3.33;;
78893;SDS011;68282;42.698;23.350;2023-07-29T00:48:03;4.55;;;3.20;;
78893;SDS011;68282;42.698;23.350;2023-07-29T00:50:30;6.35;;;3.25;;
78893;SDS011;68282;42.698;23.350;2023-07-29T00:52:57;4.72;;;3.15;;
78893;SDS011;68282;42.698;23.350;2023-07-29T00:55:23;4.03;;;3.15;;
78893;SDS011;68282;42.698;23.350;2023-07-29T00:57:49;7.05;;;3.25;;
78893;SDS011;68282;42.698;23.350;2023-07-29T01:02:43;6.10;;;3.25;;
78893;SDS011;68282;42.698;23.350;2023-07-29T01:05:08;4.70;;;3.65;;
78893;SDS011;68282;42.698;23.350;2023-07-29T01:10:23;3.40;;;2.88;;
78893;SDS011;68282;42.698;23.350;2023-07-29T01:13:11;4.50;;;3.45;;
78893;SDS011;68282;42.698;23.350;2023-07-29T01:15:46;4.70;;;2.88;;
78893;SDS011;68282;42.698;23.350;2023-07-29T01:18:17;3.83;;;2.92;;
78893;SDS011;68282;42.698;23.350;2023-07-29T01:20:46;3.92;;;2.65;;
78893;SDS011;68282;42.698;23.350;2023-07-29T01:23:12;4.85;;;2.65;;
78893;SDS011;68282;42.698;23.350;2023-07-29T01:25:38;5.90;;;3.25;;
78893;SDS011;68282;42.698;23.350;2023-07-29T01:28:04;4.72;;;3.25;;
78893;SDS011;68282;42.698;23.350;2023-07-29T01:30:30;4.20;;;3.20;;
78893;SDS011;68282;42.698;23.350;2023-07-29T01:33:08;3.83;;;2.90;;
78893;SDS011;68282;42.698;23.350;2023-07-29T01:35:46;4.47;;;2.97;;
78893;SDS011;68282;42.698;23.350;2023-07-29T01:38:19;6.45;;;3.13;;
78893;SDS011;68282;42.698;23.350;2023-07-29T01:40:50;3.58;;;3.03;;
78893;SDS011;68282;42.698;23.350;2023-07-29T01:43:17;4.50;;;3.10;;
78893;SDS011;68282;42.698;23.350;2023-07-29T01:45:48;4.07;;;3.20;;
78893;SDS011;68282;42.698;23.350;2023-07-29T01:48:14;6.07;;;3.80;;
78893;SDS011;68282;42.698;23.350;2023-07-29T01:50:39;5.47;;;3.30;;
78893;SDS011;68282;42.698;23.350;2023-07-29T01:53:05;4.38;;;3.22;;
78893;SDS011;68282;42.698;23.350;2023-07-29T01:55:30;5.18;;;3.30;;
78893;SDS011;68282;42.698;23.350;2023-07-29T01:57:56;5.78;;;3.13;;
78893;SDS011;68282;42.698;23.350;2023-07-29T02:00:21;6.93;;;3.92;;
78893;SDS011;68282;42.698;23.350;2023-07-29T02:02:47;4.68;;;3.38;;
78893;SDS011;68282;42.698;23.350;2023-07-29T02:05:12;5.72;;;3.58;;
78893;SDS011;68282;42.698;23.350;2023-07-29T02:07:38;5.05;;;3.10;;
78893;SDS011;68282;42.698;23.350;2023-07-29T02:10:03;5.55;;;3.58;;
78893;SDS011;68282;42.698;23.350;2023-07-29T02:12:29;5.38;;;3.00;;
78893;SDS011;68282;42.698;23.350;2023-07-29T02:14:54;5.18;;;3.10;;
78893;SDS011;68282;42.698;23.350;2023-07-29T02:17:20;3.88;;;3.08;;
78893;SDS011;68282;42.698;23.350;2023-07-29T02:19:46;3.83;;;3.22;;
78893;SDS011;68282;42.698;23.350;2023-07-29T02:22:15;4.57;;;3.05;;
78893;SDS011;68282;42.698;23.350;2023-07-29T02:24:42;6.10;;;3.25;;
78893;SDS011;68282;42.698;23.350;2023-07-29T02:27:08;5.13;;;3.22;;
78893;SDS011;68282;42.698;23.350;2023-07-29T02:29:33;4.18;;;3.03;;
78893;SDS011;68282;42.698;23.350;2023-07-29T02:32:02;5.00;;;3.67;;
78893;SDS011;68282;42.698;23.350;2023-07-29T02:34:28;5.68;;;3.40;;
78893;SDS011;68282;42.698;23.350;2023-07-29T02:36:53;4.60;;;3.28;;
78893;SDS011;68282;42.698;23.350;2023-07-29T02:39:19;4.57;;;3.30;;
78893;SDS011;68282;42.698;23.350;2023-07-29T02:41:45;4.80;;;3.38;;
78893;SDS011;68282;42.698;23.350;2023-07-29T02:44:10;5.55;;;3.30;;
78893;SDS011;68282;42.698;23.350;2023-07-29T02:46:35;4.07;;;3.13;;
78893;SDS011;68282;42.698;23.350;2023-07-29T02:49:01;4.60;;;3.40;;
78893;SDS011;68282;42.698;23.350;2023-07-29T02:51:29;4.53;;;3.40;;
78893;SDS011;68282;42.698;23.350;2023-07-29T02:53:54;5.78;;;3.60;;
78893;SDS011;68282;42.698;23.350;2023-07-29T02:56:20;6.93;;;3.28;;
78893;SDS011;68282;42.698;23.350;2023-07-29T02:58:45;5.63;;;3.33;;
78893;SDS011;68282;42.698;23.350;2023-07-29T03:01:11;4.85;;;3.30;;
78893;SDS011;68282;42.698;23.350;2023-07-29T03:03:36;5.20;;;3.75;;
78893;SDS011;68282;42.698;23.350;2023-07-29T03:06:03;7.07;;;3.20;;
78893;SDS011;68282;42.698;23.350;2023-07-29T03:08:29;5.40;;;3.80;;
78893;SDS011;68282;42.698;23.350;2023-07-29T03:10:55;5.97;;;3.47;;
78893;SDS011;68282;42.698;23.350;2023-07-29T03:13:21;4.05;;;3.33;;
78893;SDS011;68282;42.698;23.350;2023-07-29T03:15:47;5.28;;;3.13;;
78893;SDS011;68282;42.698;23.350;2023-07-29T03:18:12;7.35;;;3.60;;
78893;SDS011;68282;42.698;23.350;2023-07-29T03:20:38;5.22;;;3.33;;
78893;SDS011;68282;42.698;23.350;2023-07-29T03:23:03;5.05;;;4.10;;
78893;SDS011;68282;42.698;23.350;2023-07-29T03:25:29;5.40;;;4.00;;
78893;SDS011;68282;42.698;23.350;2023-07-29T03:27:54;5.22;;;3.38;;
78893;SDS011;68282;42.698;23.350;2023-07-29T03:30:20;6.75;;;4.05;;
78893;SDS011;68282;42.698;23.350;2023-07-29T03:32:47;4.90;;;3.63;;
78893;SDS011;68282;42.698;23.350;2023-07-29T03:35:14;6.80;;;3.92;;
78893;SDS011;68282;42.698;23.350;2023-07-29T03:37:39;5.80;;;3.50;;
78893;SDS011;68282;42.698;23.350;2023-07-29T03:40:06;5.15;;;3.38;;
78893;SDS011;68282;42.698;23.350;2023-07-29T03:42:32;5.32;;;3.42;;
78893;SDS011;68282;42.698;23.350;2023-07-29T03:44:58;4.35;;;3.33;;
78893;SDS011;68282;42.698;23.350;2023-07-29T03:47:23;7.72;;;3.55;;
78893;SDS011;68282;42.698;23.350;2023-07-29T03:49:49;4.68;;;3.60;;
78893;SDS011;68282;42.698;23.350;2023-07-29T03:52:14;4.45;;;3.33;;
78893;SDS011;68282;42.698;23.350;2023-07-29T03:54:40;5.95;;;3.33;;
78893;SDS011;68282;42.698;23.350;2023-07-29T03:57:05;4.25;;;3.17;;
78893;SDS011;68282;42.698;23.350;2023-07-29T03:59:31;4.65;;;2.92;;
78893;SDS011;68282;42.698;23.350;2023-07-29T04:01:56;4.53;;;3.33;;
78893;SDS011;68282;42.698;23.350;2023-07-29T04:04:22;6.38;;;3.97;;
78893;SDS011;68282;42.698;23.350;2023-07-29T04:06:47;6.00;;;3.75;;
78893;SDS011;68282;42.698;23.350;2023-07-29T04:09:13;4.93;;;3.75;;
78893;SDS011;68282;42.698;23.350;2023-07-29T04:11:38;5.15;;;3.30;;
78893;SDS011;68282;42.698;23.350;2023-07-29T04:14:04;5.15;;;3.95;;
78893;SDS011;68282;42.698;23.350;2023-07-29T04:16:29;7.05;;;3.67;;
78893;SDS011;68282;42.698;23.350;2023-07-29T04:18:55;4.70;;;3.70;;
78893;SDS011;68282;42.698;23.350;2023-07-29T04:21:21;4.70;;;3.63;;
78893;SDS011;68282;42.698;23.350;2023-07-29T04:23:47;5.28;;;3.45;;
78893;SDS011;68282;42.698;23.350;2023-07-29T04:26:12;6.70;;;4.07;;
78893;SDS011;68282;42.698;23.350;2023-07-29T04:28:38;4.55;;;3.72;;
78893;SDS011;68282;42.698;23.350;2023-07-29T04:31:03;4.97;;;3.53;;
78893;SDS011;68282;42.698;23.350;2023-07-29T04:33:29;6.32;;;3.97;;
78893;SDS011;68282;42.698;23.350;2023-07-29T04:35:55;4.45;;;3.40;;
78893;SDS011;68282;42.698;23.350;2023-07-29T04:38:21;5.47;;;4.10;;
78893;SDS011;68282;42.698;23.350;2023-07-29T04:40:48;5.97;;;3.85;;
78893;SDS011;68282;42.698;23.350;2023-07-29T04:43:14;4.40;;;3.53;;
78893;SDS011;68282;42.698;23.350;2023-07-29T04:45:43;5.28;;;4.28;;
78893;SDS011;68282;42.698;23.350;2023-07-29T04:48:09;7.38;;;4.28;;
78893;SDS011;68282;42.698;23.350;2023-07-29T04:50:34;6.57;;;3.80;;
78893;SDS011;68282;42.698;23.350;2023-07-29T04:52:59;5.35;;;4.07;;
78893;SDS011;68282;42.698;23.350;2023-07-29T04:55:25;7.18;;;4.28;;
78893;SDS011;68282;42.698;23.350;2023-07-29T04:57:50;5.50;;;4.10;;
78893;SDS011;68282;42.698;23.350;2023-07-29T05:00:16;6.30;;;4.18;;
78893;SDS011;68282;42.698;23.350;2023-07-29T05:02:41;4.57;;;3.90;;
78893;SDS011;68282;42.698;23.350;2023-07-29T05:05:07;5.03;;;4.20;;
78893;SDS011;68282;42.698;23.350;2023-07-29T05:07:33;7.75;;;4.32;;
78893;SDS011;68282;42.698;23.350;2023-07-29T05:09:58;5.82;;;4.30;;
78893;SDS011;68282;42.698;23.350;2023-07-29T05:12:24;5.72;;;4.32;;
78893;SDS011;68282;42.698;23.350;2023-07-29T05:14:49;7.30;;;4.47;;
78893;SDS011;68282;42.698;23.350;2023-07-29T05:17:14;7.18;;;4.50;;
78893;SDS011;68282;42.698;23.350;2023-07-29T05:19:40;6.78;;;4.35;;
78893;SDS011;68282;42.698;23.350;2023-07-29T05:22:05;7.75;;;5.38;;
78893;SDS011;68282;42.698;23.350;2023-07-29T05:24:31;8.32;;;4.45;;
78893;SDS011;68282;42.698;23.350;2023-07-29T05:26:56;7.15;;;4.43;;
78893;SDS011;68282;42.698;23.350;2023-07-29T05:29:22;8.63;;;4.50;;
78893;SDS011;68282;42.698;23.350;2023-07-29T05:31:47;6.25;;;4.93;;
78893;SDS011;68282;42.698;23.350;2023-07-29T05:34:13;8.32;;;5.10;;
78893;SDS011;68282;42.698;23.350;2023-07-29T05:36:38;6.28;;;5.00;;
78893;SDS011;68282;42.698;23.350;2023-07-29T05:39:04;7.13;;;4.95;;
78893;SDS011;68282;42.698;23.350;2023-07-29T05:41:29;7.38;;;4.63;;
78893;SDS011;68282;42.698;23.350;2023-07-29T05:43:55;7.03;;;4.88;;
78893;SDS011;68282;42.698;23.350;2023-07-29T05:46:20;6.60;;;4.57;;
78893;SDS011;68282;42.698;23.350;2023-07-29T05:48:46;6.78;;;4.95;;
78893;SDS011;68282;42.698;23.350;2023-07-29T05:51:11;8.00;;;4.72;;
78893;SDS011;68282;42.698;23.350;2023-07-29T05:53:37;6.38;;;4.43;;
78893;SDS011;68282;42.698;23.350;2023-07-29T05:56:02;7.07;;;4.20;;
78893;SDS011;68282;42.698;23.350;2023-07-29T05:58:28;7.30;;;4.78;;
78893;SDS011;68282;42.698;23.350;2023-07-29T06:00:56;5.00;;;4.03;;
78893;SDS011;68282;42.698;23.350;2023-07-29T06:03:22;7.03;;;4.63;;
78893;SDS011;68282;42.698;23.350;2023-07-29T06:05:48;6.38;;;4.00;;
78893;SDS011;68282;42.698;23.350;2023-07-29T06:08:14;7.35;;;4.45;;
78893;SDS011;68282;42.698;23.350;2023-07-29T06:10:39;7.47;;;4.68;;
78893;SDS011;68282;42.698;23.350;2023-07-29T06:13:04;8.02;;;5.90;;
78893;SDS011;68282;42.698;23.350;2023-07-29T06:15:31;6.80;;;4.63;;
78893;SDS011;68282;42.698;23.350;2023-07-29T06:17:56;8.70;;;4.70;;
78893;SDS011;68282;42.698;23.350;2023-07-29T06:20:22;5.35;;;4.28;;
78893;SDS011;68282;42.698;23.350;2023-07-29T06:22:47;6.13;;;4.10;;
78893;SDS011;68282;42.698;23.350;2023-07-29T06:25:12;8.13;;;4.30;;
78893;SDS011;68282;42.698;23.350;2023-07-29T06:27:38;15.35;;;5.78;;
78893;SDS011;68282;42.698;23.350;2023-07-29T06:30:03;5.55;;;4.10;;
78893;SDS011;68282;42.698;23.350;2023-07-29T06:32:29;8.45;;;4.55;;
78893;SDS011;68282;42.698;23.350;2023-07-29T06:34:55;4.80;;;3.75;;
78893;SDS011;68282;42.698;23.350;2023-07-29T06:37:20;9.50;;;4.65;;
78893;SDS011;68282;42.698;23.350;2023-07-29T06:39:46;5.78;;;4.22;;
78893;SDS011;68282;42.698;23.350;2023-07-29T06:42:12;8.05;;;4.30;;
78893;SDS011;68282;42.698;23.350;2023-07-29T06:44:38;9.38;;;5.60;;
78893;SDS011;68282;42.698;23.350;2023-07-29T06:47:03;8.73;;;4.85;;
78893;SDS011;68282;42.698;23.350;2023-07-29T06:49:29;7.78;;;4.43;;
78893;SDS011;68282;42.698;23.350;2023-07-29T06:51:54;6.88;;;4.70;;
78893;SDS011;68282;42.698;23.350;2023-07-29T06:54:23;9.10;;;5.20;;
78893;SDS011;68282;42.698;23.350;2023-07-29T06:56:51;7.25;;;5.00;;
78893;SDS011;68282;42.698;23.350;2023-07-29T06:59:16;7.65;;;5.13;;
78893;SDS011;68282;42.698;23.350;2023-07-29T07:01:41;6.60;;;4.47;;
78893;SDS011;68282;42.698;23.350;2023-07-29T07:04:07;7.35;;;4.80;;
78893;SDS011;68282;42.698;23.350;2023-07-29T07:06:32;7.78;;;4.57;;
78893;SDS011;68282;42.698;23.350;2023-07-29T07:08:58;9.93;;;5.22;;
78893;SDS011;68282;42.698;23.350;2023-07-29T07:11:23;8.30;;;4.85;;
78893;SDS011;68282;42.698;23.350;2023-07-29T07:13:49;8.30;;;5.15;;
78893;SDS011;68282;42.698;23.350;2023-07-29T07:16:14;6.50;;;4.82;;
78893;SDS011;68282;42.698;23.350;2023-07-29T07:18:39;8.13;;;5.18;;
78893;SDS011;68282;42.698;23.350;2023-07-29T07:21:05;6.50;;;4.63;;
78893;SDS011;68282;42.698;23.350;2023-07-29T07:23:30;6.57;;;4.55;;
78893;SDS011;68282;42.698;23.350;2023-07-29T07:25:56;8.30;;;5.10;;
78893;SDS011;68282;42.698;23.350;2023-07-29T07:28:21;7.05;;;5.15;;
78893;SDS011;68282;42.698;23.350;2023-07-29T07:30:46;7.15;;;4.88;;
78893;SDS011;68282;42.698;23.350;2023-07-29T07:33:12;9.65;;;4.55;;
78893;SDS011;68282;42.698;23.350;2023-07-29T07:35:38;7.43;;;4.88;;
78893;SDS011;68282;42.698;23.350;2023-07-29T07:38:03;7.68;;;4.88;;
78893;SDS011;68282;42.698;23.350;2023-07-29T07:40:30;10.15;;;5.07;;
78893;SDS011;68282;42.698;23.350;2023-07-29T07:42:56;5.63;;;4.40;;
78893;SDS011;68282;42.698;23.350;2023-07-29T07:45:21;7.38;;;4.22;;
78893;SDS011;68282;42.698;23.350;2023-07-29T07:47:47;6.32;;;4.03;;
78893;SDS011;68282;42.698;23.350;2023-07-29T07:50:13;7.05;;;4.40;;
78893;SDS011;68282;42.698;23.350;2023-07-29T07:52:39;7.85;;;5.43;;
78893;SDS011;68282;42.698;23.350;2023-07-29T07:55:04;9.65;;;4.95;;
78893;SDS011;68282;42.698;23.350;2023-07-29T07:57:30;8.10;;;3.83;;
78893;SDS011;68282;42.698;23.350;2023-07-29T07:59:56;5.75;;;4.68;;
78893;SDS011;68282;42.698;23.350;2023-07-29T08:02:21;6.60;;;3.75;;
78893;SDS011;68282;42.698;23.350;2023-07-29T08:04:47;8.07;;;3.95;;
78893;SDS011;68282;42.698;23.350;2023-07-29T08:07:13;8.00;;;4.28;;
78893;SDS011;68282;42.698;23.350;2023-07-29T08:09:39;5.88;;;4.10;;
78893;SDS011;68282;42.698;23.350;2023-07-29T08:12:04;7.82;;;4.15;;
78893;SDS011;68282;42.698;23.350;2023-07-29T08:14:30;7.72;;;3.85;;
78893;SDS011;68282;42.698;23.350;2023-07-29T08:16:56;5.93;;;4.30;;
78893;SDS011;68282;42.698;23.350;2023-07-29T08:19:21;8.85;;;4.00;;
78893;SDS011;68282;42.698;23.350;2023-07-29T08:21:46;7.00;;;4.22;;
78893;SDS011;68282;42.698;23.350;2023-07-29T08:24:12;11.18;;;4.22;;
78893;SDS011;68282;42.698;23.350;2023-07-29T08:26:37;5.28;;;3.45;;
78893;SDS011;68282;42.698;23.350;2023-07-29T08:29:03;6.10;;;3.55;;
78893;SDS011;68282;42.698;23.350;2023-07-29T08:31:28;5.22;;;4.07;;
78893;SDS011;68282;42.698;23.350;2023-07-29T08:33:54;5.63;;;3.70;;
78893;SDS011;68282;42.698;23.350;2023-07-29T08:36:19;4.13;;;3.38;;
78893;SDS011;68282;42.698;23.350;2023-07-29T08:38:47;4.15;;;2.97;;
78893;SDS011;68282;42.698;23.350;2023-07-29T08:41:17;4.53;;;3.83;;
78893;SDS011;68282;42.698;23.350;2023-07-29T08:46:25;7.72;;;3.60;;
78893;SDS011;68282;42.698;23.350;2023-07-29T08:48:51;8.00;;;3.60;;
78893;SDS011;68282;42.698;23.350;2023-07-29T08:51:17;4.75;;;3.45;;
78893;SDS011;68282;42.698;23.350;2023-07-29T08:53:44;5.55;;;2.85;;
78893;SDS011;68282;42.698;23.350;2023-07-29T08:56:10;7.85;;;3.70;;
78893;SDS011;68282;42.698;23.350;2023-07-29T08:58:36;7.43;;;3.47;;
78893;SDS011;68282;42.698;23.350;2023-07-29T09:01:03;4.82;;;3.05;;
78893;SDS011;68282;42.698;23.350;2023-07-29T09:03:28;5.80;;;3.50;;
78893;SDS011;68282;42.698;23.350;2023-07-29T09:05:54;4.65;;;2.85;;
78893;SDS011;68282;42.698;23.350;2023-07-29T09:08:22;3.40;;;2.33;;
78893;SDS011;68282;42.698;23.350;2023-07-29T09:10:48;3.00;;;2.30;;
78893;SDS011;68282;42.698;23.350;2023-07-29T09:13:14;3.70;;;2.30;;
78893;SDS011;68282;42.698;23.350;2023-07-29T09:15:39;4.30;;;2.30;;
78893;SDS011;68282;42.698;23.350;2023-07-29T09:18:17;3.85;;;2.15;;
78893;SDS011;68282;42.698;23.350;2023-07-29T09:20:48;4.28;;;2.90;;
78893;SDS011;68282;42.698;23.350;2023-07-29T09:23:14;4.28;;;2.95;;
78893;SDS011;68282;42.698;23.350;2023-07-29T09:25:40;3.90;;;2.75;;
78893;SDS011;68282;42.698;23.350;2023-07-29T09:28:10;3.83;;;2.25;;
78893;SDS011;68282;42.698;23.350;2023-07-29T09:30:39;4.15;;;2.47;;
78893;SDS011;68282;42.698;23.350;2023-07-29T09:33:06;7.03;;;2.65;;
78893;SDS011;68282;42.698;23.350;2023-07-29T09:35:33;3.75;;;2.58;;
78893;SDS011;68282;42.698;23.350;2023-07-29T09:38:06;5.50;;;2.50;;
78893;SDS011;68282;42.698;23.350;2023-07-29T09:40:36;4.38;;;2.30;;
78893;SDS011;68282;42.698;23.350;2023-07-29T09:43:02;3.72;;;2.45;;
78893;SDS011;68282;42.698;23.350;2023-07-29T09:45:29;2.70;;;1.95;;
78893;SDS011;68282;42.698;23.350;2023-07-29T09:47:56;3.67;;;2.00;;
78893;SDS011;68282;42.698;23.350;2023-07-29T09:50:24;4.13;;;2.25;;
78893;SDS011;68282;42.698;23.350;2023-07-29T09:52:51;2.30;;;1.55;;
78893;SDS011;68282;42.698;23.350;2023-07-29T09:55:18;2.72;;;1.75;;
78893;SDS011;68282;42.698;23.350;2023-07-29T09:57:44;3.22;;;2.15;;
78893;SDS011;68282;42.698;23.350;2023-07-29T10:00:10;2.88;;;1.80;;
78893;SDS011;68282;42.698;23.350;2023-07-29T10:02:40;6.55;;;4.10;;
78893;SDS011;68282;42.698;23.350;2023-07-29T10:05:07;3.33;;;2.25;;
78893;SDS011;68282;42.698;23.350;2023-07-29T10:07:34;4.35;;;2.05;;
78893;SDS011;68282;42.698;23.350;2023-07-29T10:10:04;2.50;;;1.60;;
78893;SDS011;68282;42.698;23.350;2023-07-29T10:12:34;2.60;;;1.90;;
78893;SDS011;68282;42.698;23.350;2023-07-29T10:15:02;7.43;;;2.88;;
78893;SDS011;68282;42.698;23.350;2023-07-29T10:17:34;4.10;;;1.83;;
78893;SDS011;68282;42.698;23.350;2023-07-29T10:20:01;3.00;;;2.13;;
78893;SDS011;68282;42.698;23.350;2023-07-29T10:22:33;3.35;;;2.15;;
78893;SDS011;68282;42.698;23.350;2023-07-29T10:25:04;2.85;;;1.98;;
78893;SDS011;68282;42.698;23.350;2023-07-29T10:27:38;3.72;;;2.28;;
78893;SDS011;68282;42.698;23.350;2023-07-29T10:30:10;3.97;;;2.65;;
78893;SDS011;68282;42.698;23.350;2023-07-29T10:32:37;3.60;;;2.88;;
78893;SDS011;68282;42.698;23.350;2023-07-29T10:35:03;3.60;;;2.70;;
78893;SDS011;68282;42.698;23.350;2023-07-29T10:37:29;6.47;;;2.70;;
78893;SDS011;68282;42.698;23.350;2023-07-29T10:39:55;3.30;;;2.30;;
78893;SDS011;68282;42.698;23.350;2023-07-29T10:42:21;2.97;;;1.90;;
78893;SDS011;68282;42.698;23.350;2023-07-29T10:44:49;2.20;;;1.58;;
78893;SDS011;68282;42.698;23.350;2023-07-29T10:47:20;2.53;;;1.60;;
78893;SDS011;68282;42.698;23.350;2023-07-29T10:49:49;2.17;;;1.60;;
78893;SDS011;68282;42.698;23.350;2023-07-29T10:52:29;2.53;;;1.65;;
78893;SDS011;68282;42.698;23.350;2023-07-29T10:54:58;3.00;;;1.92;;
78893;SDS011;68282;42.698;23.350;2023-07-29T10:57:34;3.88;;;1.50;;
78893;SDS011;68282;42.698;23.350;2023-07-29T11:00:02;2.55;;;1.48;;
78893;SDS011;68282;42.698;23.350;2023-07-29T11:02:36;2.10;;;1.42;;
78893;SDS011;68282;42.698;23.350;2023-07-29T11:05:06;2.05;;;1.40;;
78893;SDS011;68282;42.698;23.350;2023-07-29T11:07:42;2.30;;;1.42;;
78893;SDS011;68282;42.698;23.350;2023-07-29T11:10:09;2.22;;;1.60;;
78893;SDS011;68282;42.698;23.350;2023-07-29T11:12:35;4.15;;;1.60;;
78893;SDS011;68282;42.698;23.350;2023-07-29T11:17:38;1.48;;;1.23;;
78893;SDS011;68282;42.698;23.350;2023-07-29T11:20:05;1.95;;;1.50;;
78893;SDS011;68282;42.698;23.350;2023-07-29T11:22:37;2.78;;;1.65;;
78893;SDS011;68282;42.698;23.350;2023-07-29T11:25:04;2.38;;;1.67;;
78893;SDS011;68282;42.698;23.350;2023-07-29T11:27:32;2.78;;;1.70;;
78893;SDS011;68282;42.698;23.350;2023-07-29T11:30:00;4.97;;;1.58;;
78893;SDS011;68282;42.698;23.350;2023-07-29T11:32:27;3.03;;;1.58;;
78893;SDS011;68282;42.698;23.350;2023-07-29T11:34:56;4.88;;;2.13;;
78893;SDS011;68282;42.698;23.350;2023-07-29T11:37:22;2.85;;;1.70;;
78893;SDS011;68282;42.698;23.350;2023-07-29T11:39:47;4.47;;;1.60;;
78893;SDS011;68282;42.698;23.350;2023-07-29T11:42:14;2.25;;;1.40;;
78893;SDS011;68282;42.698;23.350;2023-07-29T11:44:40;1.67;;;1.23;;
78893;SDS011;68282;42.698;23.350;2023-07-29T11:47:06;2.78;;;1.45;;
78893;SDS011;68282;42.698;23.350;2023-07-29T11:49:33;2.50;;;1.85;;
78893;SDS011;68282;42.698;23.350;2023-07-29T11:52:03;3.55;;;1.58;;
78893;SDS011;68282;42.698;23.350;2023-07-29T11:54:31;1.80;;;1.40;;
78893;SDS011;68282;42.698;23.350;2023-07-29T11:56:56;2.78;;;2.50;;
78893;SDS011;68282;42.698;23.350;2023-07-29T11:59:22;3.22;;;2.15;;
78893;SDS011;68282;42.698;23.350;2023-07-29T12:01:48;2.58;;;1.90;;
78893;SDS011;68282;42.698;23.350;2023-07-29T12:04:14;3.08;;;1.92;;
78893;SDS011;68282;42.698;23.350;2023-07-29T12:06:40;3.55;;;1.70;;
78893;SDS011;68282;42.698;23.350;2023-07-29T12:09:07;2.50;;;1.83;;
78893;SDS011;68282;42.698;23.350;2023-07-29T12:11:53;2.85;;;1.90;;
78893;SDS011;68282;42.698;23.350;2023-07-29T12:14:19;2.80;;;1.88;;
78893;SDS011;68282;42.698;23.350;2023-07-29T12:16:48;2.70;;;1.83;;
78893;SDS011;68282;42.698;23.350;2023-07-29T12:19:14;3.70;;;2.00;;
78893;SDS011;68282;42.698;23.350;2023-07-29T12:21:43;3.03;;;1.80;;
78893;SDS011;68282;42.698;23.350;2023-07-29T12:24:09;2.90;;;2.10;;
78893;SDS011;68282;42.698;23.350;2023-07-29T12:26:36;3.22;;;1.70;;
78893;SDS011;68282;42.698;23.350;2023-07-29T12:29:12;3.20;;;2.08;;
78893;SDS011;68282;42.698;23.350;2023-07-29T12:31:38;3.55;;;1.80;;
78893;SDS011;68282;42.698;23.350;2023-07-29T12:34:03;4.78;;;2.03;;
78893;SDS011;68282;42.698;23.350;2023-07-29T12:36:45;7.45;;;2.17;;
78893;SDS011;68282;42.698;23.350;2023-07-29T12:39:16;3.17;;;2.40;;
78893;SDS011;68282;42.698;23.350;2023-07-29T12:41:46;3.75;;;2.17;;
78893;SDS011;68282;42.698;23.350;2023-07-29T12:44:12;2.35;;;1.92;;
78893;SDS011;68282;42.698;23.350;2023-07-29T12:46:38;3.00;;;1.90;;
78893;SDS011;68282;42.698;23.350;2023-07-29T12:49:03;3.08;;;1.77;;
78893;SDS011;68282;42.698;23.350;2023-07-29T12:51:29;4.25;;;1.90;;
78893;SDS011;68282;42.698;23.350;2023-07-29T12:53:54;3.25;;;2.22;;
78893;SDS011;68282;42.698;23.350;2023-07-29T12:56:20;3.40;;;2.28;;
78893;SDS011;68282;42.698;23.350;2023-07-29T12:58:45;2.53;;;1.90;;
78893;SDS011;68282;42.698;23.350;2023-07-29T13:01:11;2.92;;;2.10;;
78893;SDS011;68282;42.698;23.350;2023-07-29T13:03:42;4.45;;;2.78;;
78893;SDS011;68282;42.698;23.350;2023-07-29T13:06:07;3.63;;;2.22;;
78893;SDS011;68282;42.698;23.350;2023-07-29T13:08:33;4.50;;;2.20;;
78893;SDS011;68282;42.698;23.350;2023-07-29T13:10:58;4.50;;;2.25;;
78893;SDS011;68282;42.698;23.350;2023-07-29T13:13:24;4.38;;;1.80;;
78893;SDS011;68282;42.698;23.350;2023-07-29T13:15:49;3.28;;;2.30;;
78893;SDS011;68282;42.698;23.350;2023-07-29T13:18:15;4.20;;;2.10;;
78893;SDS011;68282;42.698;23.350;2023-07-29T13:20:40;3.85;;;2.20;;
78893;SDS011;68282;42.698;23.350;2023-07-29T13:23:05;4.72;;;1.95;;
78893;SDS011;68282;42.698;23.350;2023-07-29T13:25:31;3.97;;;2.05;;
78893;SDS011;68282;42.698;23.350;2023-07-29T13:27:56;5.13;;;2.22;;
78893;SDS011;68282;42.698;23.350;2023-07-29T13:30:22;3.33;;;2.17;;
78893;SDS011;68282;42.698;23.350;2023-07-29T13:32:48;3.60;;;1.88;;
78893;SDS011;68282;42.698;23.350;2023-07-29T13:35:13;2.65;;;1.88;;
78893;SDS011;68282;42.698;23.350;2023-07-29T13:37:38;4.35;;;1.60;;
78893;SDS011;68282;42.698;23.350;2023-07-29T13:40:04;2.88;;;1.83;;
78893;SDS011;68282;42.698;23.350;2023-07-29T13:42:30;2.70;;;1.83;;
78893;SDS011;68282;42.698;23.350;2023-07-29T13:44:55;2.80;;;1.90;;
78893;SDS011;68282;42.698;23.350;2023-07-29T13:47:21;3.35;;;2.10;;
78893;SDS011;68282;42.698;23.350;2023-07-29T13:49:46;2.55;;;1.80;;
78893;SDS011;68282;42.698;23.350;2023-07-29T13:52:12;3.08;;;2.13;;
78893;SDS011;68282;42.698;23.350;2023-07-29T13:54:38;3.17;;;1.95;;
78893;SDS011;68282;42.698;23.350;2023-07-29T13:57:04;3.22;;;2.00;;
78893;SDS011;68282;42.698;23.350;2023-07-29T13:59:31;4.57;;;2.40;;
78893;SDS011;68282;42.698;23.350;2023-07-29T14:01:57;2.92;;;2.00;;
78893;SDS011;68282;42.698;23.350;2023-07-29T14:04:22;3.17;;;2.28;;
78893;SDS011;68282;42.698;23.350;2023-07-29T14:06:48;6.88;;;2.00;;
78893;SDS011;68282;42.698;23.350;2023-07-29T14:09:13;3.83;;;2.00;;
78893;SDS011;68282;42.698;23.350;2023-07-29T14:11:39;4.88;;;2.50;;
78893;SDS011;68282;42.698;23.350;2023-07-29T14:14:04;4.32;;;2.00;;
78893;SDS011;68282;42.698;23.350;2023-07-29T14:16:30;2.88;;;1.88;;
78893;SDS011;68282;42.698;23.350;2023-07-29T14:18:55;4.57;;;2.20;;
78893;SDS011;68282;42.698;23.350;2023-07-29T14:21:20;3.22;;;2.00;;
78893;SDS011;68282;42.698;23.350;2023-07-29T14:23:46;5.07;;;2.10;;
78893;SDS011;68282;42.698;23.350;2023-07-29T14:26:13;3.80;;;2.00;;
78893;SDS011;68282;42.698;23.350;2023-07-29T14:28:39;3.35;;;2.17;;
78893;SDS011;68282;42.698;23.350;2023-07-29T14:31:04;3.78;;;3.17;;
78893;SDS011;68282;42.698;23.350;2023-07-29T14:33:30;3.60;;;2.20;;
78893;SDS011;68282;42.698;23.350;2023-07-29T14:35:58;5.07;;;2.20;;
78893;SDS011;68282;42.698;23.350;2023-07-29T14:38:24;4.18;;;2.28;;
78893;SDS011;68282;42.698;23.350;2023-07-29T14:40:51;4.38;;;2.60;;